Current Conditions
Clear
Conditions



Pressure
1036.91 (mb) - 30.62 (inHG)
Visibility

6.2 (miles) - 10.0 (km)
   Temperature
0  °C
32°F
0  °C
Dewpoint
100  %
 Humidity
   Wind Speed
0  kts
0  mph
0  km/h
0  m/s
   Wind Direction
Calm
Due North
   Airport Data
EGHI
Location Southampton Airport 35 mi (56.32 km)
Metar :EGHI 170550Z 00000KT CAVOK 00/M00 Q1037
Mon 17th January 06:50 am
   Raw Metar Info
Raw METAR is the most common format in the world for the transmission of observational weather data. It is highly standardized through the International Civil Aviation Organization (ICAO), which allows it to be understood throughout most of the world.
   API Info
Data Provided by
https://www.checkwx.com/weather/EGHI
   © Info
CSS/SVG/PHP scripts were developed by weather34.com for use in the weather34 template © 2015-2022

Guide Info provided by Metar-Wikipedia